createdAt,value
2023-03-06T00:01:17.145Z,65.52
2023-03-06T00:03:44.290Z,65.08
2023-03-06T00:06:11.348Z,65.57
2023-03-06T00:08:38.306Z,65.66
2023-03-06T00:11:05.469Z,66.12
2023-03-06T00:13:34.451Z,65.75
2023-03-06T00:16:01.725Z,66.38
2023-03-06T00:18:28.936Z,66.62
2023-03-06T00:20:55.914Z,65.15
2023-03-06T00:23:23.217Z,65.61
2023-03-06T00:25:50.519Z,65.85
2023-03-06T00:28:17.960Z,66.98
2023-03-06T00:30:46.519Z,66.91
2023-03-06T00:33:13.421Z,67.48
2023-03-06T00:35:41.387Z,67.89
2023-03-06T00:38:10.379Z,67.82
2023-03-06T00:40:37.345Z,68.29
2023-03-06T00:43:04.176Z,69.71
2023-03-06T00:45:31.298Z,69.44
2023-03-06T00:47:58.288Z,69.31
2023-03-06T00:50:25.484Z,69.73
2023-03-06T00:52:52.520Z,70.66
2023-03-06T00:55:20.098Z,70.81
2023-03-06T00:57:47.183Z,71.09
2023-03-06T01:00:14.744Z,70.62
2023-03-06T01:02:41.814Z,71.00
2023-03-06T01:05:09.449Z,70.56
2023-03-06T01:07:37.865Z,72.04
2023-03-06T01:10:05.873Z,72.09
2023-03-06T01:12:32.805Z,71.97
2023-03-06T01:15:00.496Z,72.25
2023-03-06T01:17:30.431Z,71.10
2023-03-06T01:19:58.129Z,71.56
2023-03-06T01:22:25.061Z,70.93
2023-03-06T01:24:53.437Z,70.85
2023-03-06T01:27:22.019Z,70.85
2023-03-06T01:29:49.010Z,71.55
2023-03-06T01:32:16.037Z,71.76
2023-03-06T01:34:43.064Z,71.20
2023-03-06T01:37:09.957Z,70.74
2023-03-06T01:40:02.375Z,71.29
2023-03-06T01:42:32.095Z,71.02
2023-03-06T01:45:01.650Z,71.20
2023-03-06T01:47:31.154Z,70.89
2023-03-06T01:50:01.513Z,70.58
2023-03-06T01:52:38.394Z,70.22
2023-03-06T01:55:11.300Z,70.62
2023-03-06T01:57:44.897Z,70.64
2023-03-06T02:00:18.829Z,71.36
2023-03-06T02:02:52.348Z,71.84
2023-03-06T02:05:19.914Z,72.75
2023-03-06T02:07:48.425Z,72.59
2023-03-06T02:10:16.791Z,72.20
2023-03-06T02:12:45.743Z,71.73
2023-03-06T02:15:15.501Z,70.95
2023-03-06T02:17:45.466Z,71.58
2023-03-06T02:20:22.264Z,72.24
2023-03-06T02:23:06.253Z,70.80
2023-03-06T02:25:48.777Z,71.73
2023-03-06T02:28:22.094Z,71.36
2023-03-06T02:30:52.133Z,71.63
2023-03-06T02:33:27.547Z,70.95
2023-03-06T02:36:06.477Z,71.01
2023-03-06T02:38:46.029Z,71.06
2023-03-06T02:41:12.921Z,71.63
2023-03-06T02:43:42.278Z,72.59
2023-03-06T02:46:09.358Z,72.69
2023-03-06T02:48:36.412Z,71.65
2023-03-06T02:51:03.519Z,72.14
2023-03-06T02:53:30.541Z,71.83
2023-03-06T02:55:59.817Z,72.29
2023-03-06T02:58:26.825Z,72.64
2023-03-06T03:00:53.838Z,73.21
2023-03-06T03:03:21.539Z,73.10
2023-03-06T03:05:48.449Z,72.76
2023-03-06T03:08:22.994Z,73.42
2023-03-06T03:10:53.097Z,72.49
2023-03-06T03:13:20.610Z,72.81
2023-03-06T03:16:03.621Z,73.37
2023-03-06T03:18:31.021Z,73.10
2023-03-06T03:20:58.690Z,73.71
2023-03-06T03:23:26.899Z,73.62
2023-03-06T03:26:06.960Z,74.31
2023-03-06T03:28:35.220Z,74.24
2023-03-06T03:31:07.394Z,74.86
2023-03-06T03:33:35.439Z,74.17
2023-03-06T03:36:05.059Z,74.49
2023-03-06T03:38:35.300Z,74.85
2023-03-06T03:41:03.294Z,74.61
2023-03-06T03:43:31.359Z,75.41
2023-03-06T03:45:59.273Z,75.40
2023-03-06T03:48:26.511Z,75.07
2023-03-06T03:50:53.599Z,74.71
2023-03-06T03:53:23.844Z,73.86
2023-03-06T03:55:51.332Z,74.62
2023-03-06T03:58:21.185Z,73.24
2023-03-06T04:00:49.419Z,73.83
2023-03-06T04:03:16.409Z,74.53
2023-03-06T04:05:45.725Z,74.08
2023-03-06T04:08:15.639Z,74.18
2023-03-06T04:10:45.628Z,74.02
2023-03-06T04:13:15.036Z,74.75
2023-03-06T04:15:45.203Z,75.28
2023-03-06T04:18:12.497Z,74.55
2023-03-06T04:20:39.708Z,74.03
2023-03-06T04:23:07.242Z,74.27
2023-03-06T04:25:34.320Z,74.83
2023-03-06T04:28:04.451Z,75.62
2023-03-06T04:30:32.323Z,75.20
2023-03-06T04:33:00.733Z,75.28
2023-03-06T04:35:27.902Z,75.13
2023-03-06T04:38:00.526Z,75.68
2023-03-06T04:40:32.468Z,74.96
2023-03-06T04:43:00.863Z,74.72
2023-03-06T04:45:30.342Z,74.59
2023-03-06T04:47:57.594Z,75.05
2023-03-06T04:50:25.450Z,75.21
2023-03-06T04:52:52.787Z,77.08
2023-03-06T04:55:20.434Z,77.56
2023-03-06T04:57:47.898Z,77.24
2023-03-06T05:00:20.959Z,78.96
2023-03-06T05:02:48.975Z,78.43
2023-03-06T05:05:17.173Z,78.94
2023-03-06T05:07:44.691Z,79.22
2023-03-06T05:10:15.055Z,80.41
2023-03-06T05:12:42.439Z,80.16
2023-03-06T05:15:11.369Z,80.26
2023-03-06T05:17:38.939Z,79.35
2023-03-06T05:20:11.083Z,78.87
2023-03-06T05:22:38.192Z,78.32
2023-03-06T05:25:05.939Z,77.91
2023-03-06T05:27:33.829Z,78.59
2023-03-06T05:30:01.420Z,78.61
2023-03-06T05:32:31.184Z,78.12
2023-03-06T05:34:58.511Z,77.79
2023-03-06T05:37:25.518Z,77.66
2023-03-06T05:39:52.767Z,77.00
2023-03-06T05:42:19.852Z,76.37
2023-03-06T05:44:46.700Z,75.16
2023-03-06T05:47:13.953Z,75.01
2023-03-06T05:49:41.282Z,74.85
2023-03-06T05:52:09.356Z,74.14
2023-03-06T05:54:37.401Z,74.45
2023-03-06T05:57:05.468Z,74.18
2023-03-06T05:59:33.476Z,73.83
2023-03-06T06:02:01.031Z,73.62
2023-03-06T06:04:28.323Z,73.59
2023-03-06T06:06:57.912Z,72.91
2023-03-06T06:09:25.984Z,73.36
2023-03-06T06:12:03.772Z,73.34
2023-03-06T06:14:34.512Z,73.78
2023-03-06T06:17:02.403Z,72.64
2023-03-06T06:19:30.687Z,72.65
2023-03-06T06:21:57.875Z,73.00
2023-03-06T06:24:26.399Z,72.80
2023-03-06T06:26:55.904Z,73.67
2023-03-06T06:29:24.524Z,73.05
2023-03-06T06:31:52.494Z,73.77
2023-03-06T06:34:20.186Z,73.63
2023-03-06T06:36:47.978Z,74.01
2023-03-06T06:39:17.416Z,72.65
2023-03-06T06:42:02.221Z,71.38
2023-03-06T06:44:29.943Z,71.51
2023-03-06T06:49:45.169Z,70.11
2023-03-06T06:52:12.128Z,69.63
2023-03-06T06:54:39.044Z,68.40
2023-03-06T06:57:06.473Z,69.78
2023-03-06T06:59:37.993Z,67.91
2023-03-06T07:02:06.044Z,66.98
2023-03-06T07:04:33.181Z,66.27
2023-03-06T07:07:01.378Z,65.85
2023-03-06T07:09:32.000Z,65.22
2023-03-06T07:12:02.454Z,63.29
2023-03-06T07:14:29.482Z,63.22
2023-03-06T07:16:56.475Z,63.17
2023-03-06T07:19:23.521Z,63.42
2023-03-06T07:21:50.881Z,62.52
2023-03-06T07:24:21.557Z,61.30
2023-03-06T07:26:49.637Z,61.06
2023-03-06T07:29:16.964Z,60.12
2023-03-06T07:31:44.550Z,58.12
2023-03-06T07:34:15.376Z,56.70
2023-03-06T07:36:42.498Z,56.16
2023-03-06T07:39:10.199Z,56.36
2023-03-06T07:41:37.365Z,55.15
2023-03-06T07:44:04.477Z,55.46
2023-03-06T07:46:31.812Z,55.84
2023-03-06T07:48:58.917Z,55.58
2023-03-06T07:51:25.953Z,55.96
2023-03-06T07:53:52.924Z,54.49
2023-03-06T07:56:19.965Z,53.26
2023-03-06T07:58:48.165Z,52.63
2023-03-06T08:01:17.962Z,52.38
2023-03-06T08:03:45.118Z,51.99
2023-03-06T08:06:17.834Z,51.79
2023-03-06T08:08:46.285Z,52.15
2023-03-06T08:11:15.056Z,52.04
2023-03-06T08:13:42.146Z,51.96
2023-03-06T08:16:10.127Z,51.54
2023-03-06T08:18:39.818Z,51.18
2023-03-06T08:21:11.987Z,50.64
2023-03-06T08:23:40.331Z,49.93
2023-03-06T08:26:11.843Z,51.43
2023-03-06T08:28:40.732Z,52.92
2023-03-06T08:31:16.141Z,52.04
2023-03-06T08:33:43.168Z,52.24
2023-03-06T08:36:10.504Z,51.62
2023-03-06T08:38:37.519Z,51.03
2023-03-06T08:41:04.831Z,51.66
2023-03-06T08:43:32.373Z,49.75
2023-03-06T08:45:59.835Z,49.41
2023-03-06T08:48:26.806Z,48.02
2023-03-06T08:50:53.982Z,48.82
2023-03-06T08:53:25.848Z,48.74
2023-03-06T08:55:57.585Z,48.39
2023-03-06T08:58:24.748Z,49.18
2023-03-06T09:00:52.246Z,47.38
2023-03-06T09:03:22.384Z,46.46
2023-03-06T09:05:51.680Z,46.45
2023-03-06T09:08:18.883Z,45.89
2023-03-06T09:10:48.009Z,45.59
2023-03-06T09:13:15.382Z,45.71
2023-03-06T09:15:46.186Z,46.22
2023-03-06T09:18:13.441Z,46.43
2023-03-06T09:20:40.451Z,46.78
2023-03-06T09:23:10.922Z,46.48
2023-03-06T09:25:38.238Z,46.92
2023-03-06T09:28:11.688Z,47.74
2023-03-06T09:30:41.196Z,47.17
2023-03-06T09:33:08.681Z,47.11
2023-03-06T09:35:36.042Z,47.40
2023-03-06T09:38:03.664Z,46.63
2023-03-06T09:41:01.929Z,46.61
2023-03-06T09:43:35.603Z,46.58
2023-03-06T09:46:30.458Z,46.06
2023-03-06T09:49:10.514Z,45.37
2023-03-06T09:52:16.186Z,45.96
2023-03-06T09:54:46.273Z,46.31
2023-03-06T09:57:19.669Z,45.99
2023-03-06T09:59:51.001Z,46.47
2023-03-06T10:02:54.222Z,46.67
2023-03-06T10:05:35.903Z,46.84
2023-03-06T10:08:30.429Z,46.03
2023-03-06T10:11:03.745Z,44.80
2023-03-06T10:13:50.599Z,45.06
2023-03-06T10:16:26.419Z,45.41
2023-03-06T10:18:55.571Z,44.62
2023-03-06T10:21:48.015Z,44.63
2023-03-06T10:24:35.079Z,44.86
2023-03-06T10:27:31.735Z,45.44
2023-03-06T10:30:04.347Z,45.26
2023-03-06T10:32:55.322Z,45.24
2023-03-06T10:35:30.878Z,45.51
2023-03-06T10:38:25.521Z,44.92
2023-03-06T10:41:11.310Z,44.81
2023-03-06T10:44:01.746Z,44.42
2023-03-06T10:46:38.483Z,43.51
2023-03-06T10:49:22.693Z,42.82
2023-03-06T10:52:21.555Z,44.45
2023-03-06T10:54:48.855Z,44.64
2023-03-06T10:57:24.963Z,43.79
2023-03-06T10:59:56.735Z,43.65
2023-03-06T11:02:29.620Z,43.80
2023-03-06T11:05:00.387Z,43.58
2023-03-06T11:07:33.372Z,43.97
2023-03-06T11:10:02.438Z,43.34
2023-03-06T11:12:40.866Z,43.98
2023-03-06T11:15:18.860Z,43.63
2023-03-06T11:18:01.301Z,43.76
2023-03-06T11:20:53.155Z,44.40
2023-03-06T11:23:37.605Z,44.43
2023-03-06T11:26:17.372Z,43.88
2023-03-06T11:28:48.651Z,43.66
2023-03-06T11:31:21.279Z,43.66
2023-03-06T11:33:54.337Z,43.91
2023-03-06T11:36:36.501Z,43.67
2023-03-06T11:39:11.414Z,43.61
2023-03-06T11:42:00.191Z,42.85
2023-03-06T11:44:50.514Z,42.06
2023-03-06T11:47:33.829Z,42.18
2023-03-06T11:50:10.819Z,42.18
2023-03-06T11:52:56.236Z,42.63
2023-03-06T11:55:32.138Z,42.54
2023-03-06T11:58:20.372Z,41.20
2023-03-06T12:00:47.309Z,41.47
2023-03-06T12:04:02.805Z,41.94
2023-03-06T12:07:26.408Z,42.23
2023-03-06T12:09:55.015Z,42.51
2023-03-06T12:12:29.129Z,42.39
2023-03-06T12:15:17.222Z,42.00
2023-03-06T12:17:50.750Z,42.44
2023-03-06T12:20:42.821Z,42.27
2023-03-06T12:23:24.996Z,42.70
2023-03-06T12:26:34.274Z,42.67
2023-03-06T12:29:14.019Z,42.54
2023-03-06T12:32:29.033Z,41.92
2023-03-06T12:35:33.972Z,40.98
2023-03-06T12:38:25.640Z,41.19
2023-03-06T12:41:31.160Z,41.62
2023-03-06T12:44:13.050Z,41.73
2023-03-06T12:46:45.681Z,42.62
2023-03-06T12:49:31.923Z,42.06
2023-03-06T12:52:00.801Z,41.89
2023-03-06T12:54:31.438Z,42.00
2023-03-06T12:57:06.298Z,42.17
2023-03-06T12:59:44.753Z,41.61
2023-03-06T13:02:30.433Z,42.34
2023-03-06T13:05:34.887Z,42.19
2023-03-06T13:08:16.681Z,42.31
2023-03-06T13:11:01.140Z,41.99
2023-03-06T13:13:40.622Z,41.82
2023-03-06T13:16:21.432Z,42.27
2023-03-06T13:19:18.420Z,42.23
2023-03-06T13:22:01.069Z,42.45
2023-03-06T13:24:33.909Z,42.42
2023-03-06T13:27:02.218Z,42.40
2023-03-06T13:29:38.450Z,42.60
2023-03-06T13:32:16.561Z,42.59
2023-03-06T13:34:49.327Z,40.87
2023-03-06T13:37:25.335Z,41.45
2023-03-06T13:39:55.197Z,40.68
2023-03-06T13:42:55.736Z,41.99
2023-03-06T13:45:43.877Z,42.00
2023-03-06T13:48:44.599Z,41.83
2023-03-06T13:51:26.543Z,41.94
2023-03-06T13:54:11.848Z,42.44
2023-03-06T13:57:03.358Z,43.03
2023-03-06T13:59:30.402Z,43.05
2023-03-06T14:02:08.796Z,42.73
2023-03-06T14:04:51.053Z,42.73
2023-03-06T14:07:21.947Z,42.49
2023-03-06T14:10:03.443Z,44.40
2023-03-06T14:12:36.122Z,44.40
2023-03-06T14:15:23.424Z,44.93
2023-03-06T14:18:24.224Z,44.51
2023-03-06T14:21:02.196Z,44.27
2023-03-06T14:23:32.419Z,44.19
2023-03-06T14:26:15.318Z,44.33
2023-03-06T14:29:02.459Z,44.47
2023-03-06T14:31:33.577Z,44.94
2023-03-06T14:34:05.176Z,44.91
2023-03-06T14:36:42.153Z,45.23
2023-03-06T14:39:29.887Z,45.52
2023-03-06T14:42:19.091Z,45.20
2023-03-06T14:44:47.945Z,45.42
2023-03-06T14:47:36.449Z,46.09
2023-03-06T14:50:24.518Z,46.23
2023-03-06T14:53:04.979Z,46.02
2023-03-06T14:55:36.306Z,46.24
2023-03-06T14:58:11.792Z,46.34
2023-03-06T15:00:44.800Z,46.52
2023-03-06T15:03:19.479Z,46.64
2023-03-06T15:05:47.652Z,46.99
2023-03-06T15:08:22.521Z,46.70
2023-03-06T15:10:58.817Z,46.74
2023-03-06T15:13:28.462Z,46.38
2023-03-06T15:15:59.571Z,47.52
2023-03-06T15:18:39.801Z,46.97
2023-03-06T15:21:08.237Z,46.47
2023-03-06T15:23:46.009Z,46.89
2023-03-06T15:26:37.049Z,47.20
2023-03-06T15:29:10.848Z,47.39
2023-03-06T15:31:42.765Z,47.11
2023-03-06T15:34:10.273Z,47.59
2023-03-06T15:36:38.908Z,47.53
2023-03-06T15:39:28.764Z,47.62
2023-03-06T15:42:14.628Z,48.52
2023-03-06T15:44:45.357Z,49.18
2023-03-06T15:47:13.023Z,48.81
2023-03-06T15:49:43.783Z,49.23
2023-03-06T15:52:15.986Z,49.35
2023-03-06T15:54:45.960Z,49.31
2023-03-06T15:57:29.415Z,49.51
2023-03-06T15:59:57.864Z,49.61
2023-03-06T16:02:24.869Z,49.96
2023-03-06T16:04:52.604Z,49.54
2023-03-06T16:07:21.082Z,50.57
2023-03-06T16:09:48.184Z,50.68
2023-03-06T16:12:22.975Z,50.86
2023-03-06T16:14:50.042Z,51.15
2023-03-06T16:17:17.810Z,50.92
2023-03-06T16:19:44.861Z,51.03
2023-03-06T16:22:11.984Z,51.67
2023-03-06T16:24:39.002Z,51.88
2023-03-06T16:27:06.991Z,50.79
2023-03-06T16:29:34.481Z,50.01
2023-03-06T16:32:02.537Z,50.20
2023-03-06T16:34:29.628Z,51.24
2023-03-06T16:36:56.655Z,50.72
2023-03-06T16:39:24.544Z,51.07
2023-03-06T16:41:52.064Z,51.21
2023-03-06T16:44:22.012Z,50.83
2023-03-06T16:46:52.149Z,50.34
2023-03-06T16:49:24.722Z,50.59
2023-03-06T16:51:58.043Z,50.48
2023-03-06T16:54:26.558Z,49.54
2023-03-06T16:56:53.850Z,49.67
2023-03-06T16:59:21.120Z,49.84
2023-03-06T17:01:48.170Z,49.73
2023-03-06T17:04:15.249Z,51.03
2023-03-06T17:06:43.215Z,52.44
2023-03-06T17:09:14.835Z,52.61
2023-03-06T17:11:45.091Z,53.00
2023-03-06T17:14:13.373Z,53.53
2023-03-06T17:16:40.730Z,53.62
2023-03-06T17:19:08.915Z,53.59
2023-03-06T17:21:41.139Z,53.54
2023-03-06T17:24:09.982Z,53.84
2023-03-06T17:26:37.307Z,54.47
2023-03-06T17:29:06.950Z,54.64
2023-03-06T17:31:34.262Z,54.99
2023-03-06T17:34:01.203Z,55.58
2023-03-06T17:36:29.546Z,56.29
2023-03-06T17:38:59.895Z,56.21
2023-03-06T17:41:27.062Z,56.07
2023-03-06T17:43:58.473Z,56.27
2023-03-06T17:46:26.280Z,56.66
2023-03-06T17:48:54.480Z,57.26
2023-03-06T17:51:21.373Z,57.08
2023-03-06T17:53:49.317Z,57.68
2023-03-06T17:56:16.454Z,57.74
2023-03-06T17:58:43.392Z,57.79
2023-03-06T18:01:11.312Z,58.38
2023-03-06T18:03:38.704Z,57.78
2023-03-06T18:06:09.901Z,58.17
2023-03-06T18:08:38.309Z,57.97
2023-03-06T18:11:08.132Z,57.75
2023-03-06T18:13:37.191Z,58.41
2023-03-06T18:16:05.965Z,58.67
2023-03-06T18:18:33.839Z,59.16
2023-03-06T18:21:05.801Z,59.65
2023-03-06T18:23:32.838Z,59.48
2023-03-06T18:26:11.974Z,60.38
2023-03-06T18:28:42.551Z,60.18
2023-03-06T18:31:26.778Z,60.57
2023-03-06T18:33:57.744Z,61.34
2023-03-06T18:36:27.343Z,61.81
2023-03-06T18:38:54.756Z,61.60
2023-03-06T18:41:22.722Z,61.60
2023-03-06T18:43:55.385Z,62.09
2023-03-06T18:46:22.723Z,62.32
2023-03-06T18:48:51.023Z,62.57
2023-03-06T18:51:19.412Z,63.29
2023-03-06T18:53:46.869Z,63.48
2023-03-06T18:56:19.999Z,63.72
2023-03-06T18:58:47.598Z,64.31
2023-03-06T19:01:14.711Z,64.77
2023-03-06T19:03:45.224Z,64.91
2023-03-06T19:06:14.466Z,64.98
2023-03-06T19:08:42.181Z,65.34
2023-03-06T19:11:11.881Z,65.90
2023-03-06T19:13:38.893Z,65.39
2023-03-06T19:16:08.186Z,65.43
2023-03-06T19:18:35.596Z,65.53
2023-03-06T19:21:17.742Z,66.19
2023-03-06T19:23:44.950Z,66.11
2023-03-06T19:26:12.265Z,65.83
2023-03-06T19:28:43.393Z,65.24
2023-03-06T19:31:15.976Z,65.12
2023-03-06T19:33:43.311Z,65.59
2023-03-06T19:36:12.625Z,65.60
2023-03-06T19:38:39.974Z,65.36
2023-03-06T19:41:11.958Z,65.65
2023-03-06T19:43:40.968Z,66.24
2023-03-06T19:46:15.395Z,66.65
2023-03-06T19:48:42.806Z,66.98
2023-03-06T19:51:10.307Z,67.21
2023-03-06T19:53:39.737Z,67.48
2023-03-06T19:56:13.490Z,67.21
2023-03-06T19:58:40.934Z,67.03
2023-03-06T20:01:10.769Z,66.73
2023-03-06T20:03:38.749Z,67.84
2023-03-06T20:06:09.148Z,67.58
2023-03-06T20:08:39.571Z,67.67
2023-03-06T20:11:06.780Z,69.23
2023-03-06T20:13:33.664Z,69.25
2023-03-06T20:16:04.183Z,68.30
2023-03-06T20:18:31.145Z,67.92
2023-03-06T20:21:02.887Z,67.12
2023-03-06T20:23:30.480Z,67.60
2023-03-06T20:26:02.010Z,68.44
2023-03-06T20:28:29.151Z,68.42
2023-03-06T20:30:56.123Z,69.13
2023-03-06T20:33:23.253Z,69.25
2023-03-06T20:35:50.379Z,68.88
2023-03-06T20:38:17.468Z,69.99
2023-03-06T20:40:44.639Z,69.92
2023-03-06T20:43:11.626Z,70.55
2023-03-06T20:45:39.364Z,69.94
2023-03-06T20:48:06.651Z,69.75
2023-03-06T20:50:33.628Z,70.62
2023-03-06T20:53:00.781Z,70.22
2023-03-06T20:55:27.786Z,71.50
2023-03-06T20:57:54.719Z,71.59
2023-03-06T21:00:21.738Z,70.47
2023-03-06T21:02:49.090Z,69.77
2023-03-06T21:05:16.271Z,69.58
2023-03-06T21:07:44.499Z,69.07
2023-03-06T21:10:11.861Z,69.47
2023-03-06T21:12:42.677Z,70.46
2023-03-06T21:15:09.986Z,71.30
2023-03-06T21:17:37.901Z,71.92
2023-03-06T21:20:06.120Z,70.89
2023-03-06T21:22:33.277Z,71.23
2023-03-06T21:25:02.879Z,71.68
2023-03-06T21:27:30.754Z,71.50
2023-03-06T21:29:57.733Z,71.24
2023-03-06T21:32:24.804Z,71.32
2023-03-06T21:34:51.941Z,71.76
2023-03-06T21:37:19.274Z,72.51
2023-03-06T21:39:46.460Z,71.31
2023-03-06T21:42:14.041Z,72.05
2023-03-06T21:44:41.040Z,71.93
2023-03-06T21:47:08.572Z,72.28
2023-03-06T21:49:35.569Z,72.89
2023-03-06T21:52:03.329Z,71.87
2023-03-06T21:54:30.480Z,73.11
2023-03-06T21:56:57.940Z,73.44
2023-03-06T21:59:25.058Z,73.93
2023-03-06T22:01:52.135Z,75.53
2023-03-06T22:04:19.199Z,76.14
2023-03-06T22:06:46.152Z,77.43
2023-03-06T22:09:16.241Z,76.11
2023-03-06T22:11:43.736Z,75.71
2023-03-06T22:14:10.781Z,76.37
2023-03-06T22:16:37.936Z,75.43
2023-03-06T22:19:05.288Z,75.66
2023-03-06T22:21:32.371Z,75.40
2023-03-06T22:23:59.886Z,75.27
2023-03-06T22:26:28.928Z,74.76
2023-03-06T22:28:56.291Z,74.84
2023-03-06T22:31:26.037Z,73.84
2023-03-06T22:33:55.094Z,73.19
2023-03-06T22:36:23.367Z,72.57
2023-03-06T22:38:54.764Z,71.39
2023-03-06T22:41:22.119Z,72.21
2023-03-06T22:43:49.205Z,71.57
2023-03-06T22:46:17.827Z,72.67
2023-03-06T22:48:45.736Z,72.55
2023-03-06T22:51:15.570Z,72.79
2023-03-06T22:53:43.157Z,73.40
2023-03-06T22:56:14.879Z,73.03
2023-03-06T22:58:42.266Z,72.40
2023-03-06T23:01:12.069Z,72.68
2023-03-06T23:03:42.317Z,72.43
2023-03-06T23:06:12.013Z,71.45
2023-03-06T23:08:39.212Z,72.02
2023-03-06T23:11:16.051Z,71.90
2023-03-06T23:14:02.302Z,72.14
2023-03-06T23:16:47.770Z,73.75
2023-03-06T23:19:33.260Z,74.74
2023-03-06T23:22:19.297Z,75.17
2023-03-06T23:25:06.106Z,74.14
2023-03-06T23:27:35.166Z,75.10
2023-03-06T23:30:02.580Z,74.44
2023-03-06T23:32:33.094Z,74.50
2023-03-06T23:35:00.733Z,74.76
2023-03-06T23:37:27.706Z,73.87
2023-03-06T23:39:54.783Z,74.05
2023-03-06T23:42:22.676Z,74.33
2023-03-06T23:44:49.792Z,73.25
2023-03-06T23:47:17.411Z,73.71
2023-03-06T23:49:44.401Z,73.37
2023-03-06T23:52:11.365Z,72.90
2023-03-06T23:54:38.332Z,73.45
2023-03-06T23:57:05.423Z,73.01
2023-03-06T23:59:32.722Z,72.84
